createdAt,value
2018-08-13T00:01:59.414Z,17.92
2018-08-13T00:04:27.764Z,17.90
2018-08-13T00:06:56.063Z,17.87
2018-08-13T00:09:29.575Z,17.83
2018-08-13T00:11:57.925Z,17.86
2018-08-13T00:14:26.265Z,17.86
2018-08-13T00:16:54.608Z,17.86
2018-08-13T00:19:22.951Z,17.88
2018-08-13T00:21:51.289Z,17.89
2018-08-13T00:24:19.686Z,17.90
2018-08-13T00:26:48.069Z,17.92
2018-08-13T00:29:16.430Z,17.87
2018-08-13T00:31:44.785Z,17.82
2018-08-13T00:34:13.167Z,17.80
2018-08-13T00:36:41.516Z,17.82
2018-08-13T00:39:12.083Z,17.82
2018-08-13T00:41:40.476Z,17.81
2018-08-13T00:44:08.935Z,17.80
2018-08-13T00:46:37.357Z,17.78
2018-08-13T00:49:06.087Z,17.77
2018-08-13T00:51:35.524Z,17.73
2018-08-13T00:54:03.926Z,17.69
2018-08-13T00:56:32.268Z,17.70
2018-08-13T00:59:00.705Z,17.73
2018-08-13T01:01:29.151Z,17.76
2018-08-13T01:03:57.528Z,17.80
2018-08-13T01:06:25.911Z,17.84
2018-08-13T01:08:54.281Z,17.85
2018-08-13T01:11:22.636Z,17.86
2018-08-13T01:13:51.091Z,17.89
2018-08-13T01:16:19.411Z,17.93
2018-08-13T01:18:47.746Z,17.97
2018-08-13T01:21:16.121Z,17.97
2018-08-13T01:23:44.482Z,18.01
2018-08-13T01:26:13.130Z,18.03
2018-08-13T01:28:41.494Z,18.09
2018-08-13T01:31:09.897Z,18.10
2018-08-13T01:33:38.281Z,18.08
2018-08-13T01:36:06.989Z,18.09
2018-08-13T01:38:35.379Z,18.09
2018-08-13T01:41:03.749Z,18.12
2018-08-13T01:43:32.129Z,18.15
2018-08-13T01:46:00.472Z,18.17
2018-08-13T01:48:28.885Z,18.20
2018-08-13T01:50:57.233Z,18.18
2018-08-13T01:53:25.646Z,18.19
2018-08-13T01:55:53.999Z,18.17
2018-08-13T01:58:22.384Z,18.16
2018-08-13T02:00:50.766Z,18.14
2018-08-13T02:03:19.172Z,18.10
2018-08-13T02:05:47.498Z,18.05
2018-08-13T02:08:16.022Z,18.00
2018-08-13T02:10:44.422Z,17.98
2018-08-13T02:13:13.157Z,18.00
2018-08-13T02:15:41.493Z,18.01
2018-08-13T02:18:09.824Z,17.99
2018-08-13T02:20:38.352Z,17.97
2018-08-13T02:23:06.755Z,17.96
2018-08-13T02:25:35.092Z,17.95
2018-08-13T02:28:03.489Z,17.96
2018-08-13T02:30:31.899Z,17.92
2018-08-13T02:33:00.258Z,17.89
2018-08-13T02:35:28.554Z,17.90
2018-08-13T02:37:56.897Z,17.91
2018-08-13T02:40:25.291Z,17.91
2018-08-13T02:42:53.652Z,17.89
2018-08-13T02:45:22.044Z,17.87
2018-08-13T02:47:50.397Z,17.84
2018-08-13T02:50:18.830Z,17.83
2018-08-13T02:52:47.175Z,17.83
2018-08-13T02:55:15.510Z,17.86
2018-08-13T02:57:43.866Z,17.90
2018-08-13T03:00:12.545Z,17.92
2018-08-13T03:02:41.221Z,17.91
2018-08-13T03:05:11.967Z,17.91
2018-08-13T03:07:41.025Z,17.90
2018-08-13T03:10:12.503Z,17.89
2018-08-13T03:12:41.092Z,17.84
2018-08-13T03:15:13.397Z,17.84
2018-08-13T03:17:41.830Z,17.86
2018-08-13T03:20:10.369Z,17.89
2018-08-13T03:22:38.727Z,17.93
2018-08-13T03:25:08.979Z,17.94
2018-08-13T03:27:37.419Z,17.91
2018-08-13T03:30:10.019Z,17.89
2018-08-13T03:32:38.656Z,17.87
2018-08-13T03:35:07.295Z,17.84
2018-08-13T03:37:35.683Z,17.86
2018-08-13T03:40:05.281Z,17.87
2018-08-13T03:42:33.620Z,17.93
2018-08-13T03:45:08.511Z,17.99
2018-08-13T03:47:36.903Z,18.02
2018-08-13T03:50:06.766Z,18.02
2018-08-13T03:52:35.142Z,17.97
2018-08-13T03:55:03.520Z,17.95
2018-08-13T03:57:31.846Z,17.96
2018-08-13T04:00:00.366Z,17.94
2018-08-13T04:02:29.008Z,17.91
2018-08-13T04:04:57.386Z,17.89
2018-08-13T04:07:25.711Z,17.90
2018-08-13T04:09:54.071Z,17.87
2018-08-13T04:12:22.397Z,17.79
2018-08-13T04:14:50.741Z,17.77
2018-08-13T04:17:19.097Z,17.78
2018-08-13T04:19:47.541Z,17.75
2018-08-13T04:22:15.899Z,17.76
2018-08-13T04:24:44.196Z,17.80
2018-08-13T04:27:12.555Z,17.82
2018-08-13T04:29:41.068Z,17.87
2018-08-13T04:32:09.402Z,17.91
2018-08-13T04:34:37.750Z,17.99
2018-08-13T04:37:06.107Z,18.05
2018-08-13T04:39:34.472Z,18.11
2018-08-13T04:42:02.885Z,18.16
2018-08-13T04:44:31.236Z,18.22
2018-08-13T04:46:59.580Z,18.27
2018-08-13T04:49:28.086Z,18.30
2018-08-13T04:51:56.466Z,18.32
2018-08-13T04:54:24.917Z,18.31
2018-08-13T04:56:53.274Z,18.32
2018-08-13T04:59:21.691Z,18.33
2018-08-13T05:01:50.052Z,18.31
2018-08-13T05:04:18.432Z,18.30
2018-08-13T05:06:46.790Z,18.31
2018-08-13T05:09:15.130Z,18.32
2018-08-13T05:11:43.502Z,18.36
2018-08-13T05:14:11.821Z,18.36
2018-08-13T05:16:40.201Z,18.36
2018-08-13T05:19:08.618Z,18.36
2018-08-13T05:21:36.945Z,18.37
2018-08-13T05:24:05.365Z,18.40
2018-08-13T05:26:33.721Z,18.45
2018-08-13T05:29:02.096Z,18.48
2018-08-13T05:31:30.524Z,18.52
2018-08-13T05:33:59.104Z,18.58
2018-08-13T05:36:27.447Z,18.61
2018-08-13T05:38:55.765Z,18.62
2018-08-13T05:41:24.113Z,18.69
2018-08-13T05:43:52.474Z,18.73
2018-08-13T05:46:20.815Z,18.77
2018-08-13T05:48:49.161Z,18.81
2018-08-13T05:51:17.489Z,18.91
2018-08-13T05:53:45.825Z,19.02
2018-08-13T05:56:14.325Z,19.11
2018-08-13T05:58:42.815Z,19.23
2018-08-13T06:01:11.165Z,19.37
2018-08-13T06:03:39.580Z,19.49
2018-08-13T06:06:07.989Z,19.60
2018-08-13T06:08:36.337Z,19.66
2018-08-13T06:11:04.660Z,19.72
2018-08-13T06:13:33.026Z,19.78
2018-08-13T06:16:01.393Z,19.81
2018-08-13T06:18:30.037Z,19.87
2018-08-13T06:20:58.422Z,19.89
2018-08-13T06:23:26.892Z,19.90
2018-08-13T06:25:55.860Z,19.89
2018-08-13T06:28:24.434Z,19.90
2018-08-13T06:30:52.841Z,19.87
2018-08-13T06:33:21.301Z,19.84
2018-08-13T06:35:49.661Z,19.83
2018-08-13T06:38:18.007Z,19.80
2018-08-13T06:40:46.385Z,19.80
2018-08-13T06:43:14.681Z,19.79
2018-08-13T06:45:43.076Z,19.82
2018-08-13T06:48:11.455Z,19.85
2018-08-13T06:50:39.898Z,19.86
2018-08-13T06:53:08.253Z,19.86
2018-08-13T06:55:36.616Z,19.86
2018-08-13T06:58:05.696Z,19.84
2018-08-13T07:00:34.020Z,19.78
2018-08-13T07:03:02.433Z,19.76
2018-08-13T07:05:31.592Z,19.68
2018-08-13T07:07:59.947Z,19.62
2018-08-13T07:10:32.468Z,19.51
2018-08-13T07:13:01.843Z,19.40
2018-08-13T07:15:30.237Z,19.32
2018-08-13T07:17:58.581Z,19.30
2018-08-13T07:20:26.952Z,19.27
2018-08-13T07:22:55.351Z,19.25
2018-08-13T07:25:23.755Z,19.29
2018-08-13T07:27:52.155Z,19.35
2018-08-13T07:30:20.516Z,19.44
2018-08-13T07:32:48.917Z,19.51
2018-08-13T07:35:17.287Z,19.57
2018-08-13T07:37:45.612Z,19.63
2018-08-13T07:40:15.665Z,19.70
2018-08-13T07:42:44.176Z,19.80
2018-08-13T07:45:12.613Z,19.92
2018-08-13T07:47:41.199Z,20.02
2018-08-13T07:50:11.604Z,20.08
2018-08-13T07:52:40.186Z,20.11
2018-08-13T07:55:09.244Z,20.13
2018-08-13T07:57:37.876Z,20.21
2018-08-13T08:00:07.540Z,20.30
2018-08-13T08:02:35.868Z,20.40
2018-08-13T08:05:05.078Z,20.47
2018-08-13T08:07:33.526Z,20.56
2018-08-13T08:10:01.933Z,20.61
2018-08-13T08:12:30.368Z,20.61
2018-08-13T08:14:58.771Z,20.54
2018-08-13T08:17:27.116Z,20.38
2018-08-13T08:19:55.436Z,20.25
2018-08-13T08:22:23.792Z,20.15
2018-08-13T08:24:52.139Z,20.07
2018-08-13T08:27:20.507Z,20.04
2018-08-13T08:29:48.979Z,20.05
2018-08-13T08:32:17.451Z,20.11
2018-08-13T08:34:45.862Z,20.16
2018-08-13T08:37:14.215Z,20.27
2018-08-13T08:39:42.523Z,20.43
2018-08-13T08:42:10.874Z,20.57
2018-08-13T08:44:39.298Z,20.73
2018-08-13T08:47:07.693Z,20.88
2018-08-13T08:49:36.069Z,20.92
2018-08-13T08:52:04.602Z,20.92
2018-08-13T08:54:32.966Z,20.92
2018-08-13T08:57:01.311Z,20.94
2018-08-13T08:59:30.101Z,20.94
2018-08-13T09:01:58.440Z,20.92
2018-08-13T09:04:26.860Z,20.88
2018-08-13T09:06:55.197Z,20.88
2018-08-13T09:09:23.530Z,20.88
2018-08-13T09:11:51.880Z,20.89
2018-08-13T09:14:20.239Z,20.89
2018-08-13T09:16:50.287Z,20.81
2018-08-13T09:19:30.124Z,20.70
2018-08-13T09:22:11.543Z,20.58
2018-08-13T09:24:51.218Z,20.45
2018-08-13T09:27:30.893Z,20.35
2018-08-13T09:30:10.747Z,20.27
2018-08-13T09:32:50.428Z,20.25
2018-08-13T09:35:21.325Z,20.25
2018-08-13T09:37:49.618Z,20.26
2018-08-13T09:40:17.916Z,20.29
2018-08-13T09:42:46.281Z,20.34
2018-08-13T09:45:14.641Z,20.40
2018-08-13T09:47:42.956Z,20.48
2018-08-13T09:50:13.687Z,20.61
2018-08-13T09:52:42.453Z,20.78
2018-08-13T09:55:11.008Z,20.98
2018-08-13T09:57:39.377Z,21.26
2018-08-13T10:00:13.890Z,21.51
2018-08-13T10:02:42.920Z,21.64
2018-08-13T10:05:11.379Z,21.68
2018-08-13T10:07:39.754Z,21.70
2018-08-13T10:10:08.791Z,21.79
2018-08-13T10:12:37.108Z,21.92
2018-08-13T10:15:07.091Z,22.07
2018-08-13T10:17:35.576Z,22.19
2018-08-13T10:20:05.380Z,22.27
2018-08-13T10:22:33.767Z,22.38
2018-08-13T10:25:02.459Z,22.50
2018-08-13T10:27:30.777Z,22.59
2018-08-13T10:29:59.175Z,22.65
2018-08-13T10:32:27.687Z,22.60
2018-08-13T10:34:56.114Z,22.56
2018-08-13T10:37:24.499Z,22.60
2018-08-13T10:39:52.876Z,22.69
2018-08-13T10:42:21.233Z,22.78
2018-08-13T10:44:49.643Z,22.86
2018-08-13T10:47:17.979Z,22.88
2018-08-13T10:49:46.320Z,22.85
2018-08-13T10:52:14.696Z,22.85
2018-08-13T10:54:43.045Z,22.89
2018-08-13T10:57:11.382Z,22.95
2018-08-13T10:59:39.826Z,23.10
2018-08-13T11:02:08.208Z,23.27
2018-08-13T11:04:36.752Z,23.46
2018-08-13T11:07:05.333Z,23.54
2018-08-13T11:09:33.669Z,23.53
2018-08-13T11:12:02.109Z,23.49
2018-08-13T11:14:30.495Z,23.52
2018-08-13T11:16:58.849Z,23.68
2018-08-13T11:19:27.214Z,23.89
2018-08-13T11:21:55.893Z,24.04
2018-08-13T11:24:24.327Z,24.03
2018-08-13T11:26:52.721Z,23.96
2018-08-13T11:29:21.104Z,23.83
2018-08-13T11:31:49.493Z,23.77
2018-08-13T11:34:17.878Z,23.76
2018-08-13T11:36:46.223Z,23.76
2018-08-13T11:39:14.654Z,23.71
2018-08-13T11:41:43.008Z,23.69
2018-08-13T11:44:11.425Z,23.63
2018-08-13T11:46:39.808Z,23.63
2018-08-13T11:49:08.184Z,23.57
2018-08-13T11:51:36.538Z,23.49
2018-08-13T11:54:05.074Z,23.37
2018-08-13T11:56:33.427Z,23.26
2018-08-13T11:59:02.372Z,23.14
2018-08-13T12:01:30.858Z,22.98
2018-08-13T12:03:59.224Z,22.86
2018-08-13T12:06:27.600Z,22.74
2018-08-13T12:08:55.935Z,22.68
2018-08-13T12:11:24.393Z,22.63
2018-08-13T12:13:52.776Z,22.60
2018-08-13T12:16:21.136Z,22.61
2018-08-13T12:18:49.469Z,22.69
2018-08-13T12:21:17.887Z,22.76
2018-08-13T12:23:46.225Z,22.90
2018-08-13T12:26:14.610Z,23.03
2018-08-13T12:28:42.909Z,23.18
2018-08-13T12:31:11.241Z,23.32
2018-08-13T12:33:39.641Z,23.43
2018-08-13T12:36:08.011Z,23.49
2018-08-13T12:38:36.476Z,23.53
2018-08-13T12:41:04.996Z,23.54
2018-08-13T12:43:33.385Z,23.55
2018-08-13T12:46:01.745Z,23.56
2018-08-13T12:48:30.156Z,23.61
2018-08-13T12:50:58.518Z,23.65
2018-08-13T12:53:26.927Z,23.69
2018-08-13T12:55:55.393Z,23.73
2018-08-13T12:58:23.728Z,23.62
2018-08-13T13:00:58.101Z,23.51
2018-08-13T13:03:26.503Z,23.39
2018-08-13T13:05:54.892Z,23.32
2018-08-13T13:08:23.261Z,23.26
2018-08-13T13:10:51.576Z,23.22
2018-08-13T13:13:19.930Z,23.17
2018-08-13T13:15:48.429Z,23.06
2018-08-13T13:18:16.774Z,22.95
2018-08-13T13:20:45.481Z,22.81
2018-08-13T13:23:13.934Z,22.68
2018-08-13T13:25:42.352Z,22.55
2018-08-13T13:28:10.662Z,22.38
2018-08-13T13:30:39.030Z,22.29
2018-08-13T13:33:07.775Z,22.18
2018-08-13T13:35:36.167Z,22.07
2018-08-13T13:38:04.520Z,22.00
2018-08-13T13:40:32.941Z,21.94
2018-08-13T13:43:01.375Z,21.90
2018-08-13T13:45:29.751Z,21.88
2018-08-13T13:47:58.108Z,21.89
2018-08-13T13:50:26.512Z,21.93
2018-08-13T13:52:55.196Z,21.93
2018-08-13T13:55:23.581Z,21.91
2018-08-13T13:57:51.991Z,21.95
2018-08-13T14:00:21.493Z,22.06
2018-08-13T14:02:51.461Z,22.18
2018-08-13T14:05:20.284Z,22.23
2018-08-13T14:07:48.661Z,22.27
2018-08-13T14:10:20.422Z,22.22
2018-08-13T14:12:48.803Z,22.09
2018-08-13T14:15:18.601Z,22.07
2018-08-13T14:17:47.171Z,22.13
2018-08-13T14:20:15.820Z,22.25
2018-08-13T14:22:44.252Z,22.36
2018-08-13T14:25:13.694Z,22.51
2018-08-13T14:27:42.065Z,22.64
2018-08-13T14:30:13.119Z,22.79
2018-08-13T14:32:41.505Z,22.91
2018-08-13T14:35:09.958Z,22.91
2018-08-13T14:37:38.648Z,22.97
2018-08-13T14:40:08.806Z,23.02
2018-08-13T14:42:37.189Z,22.90
2018-08-13T14:45:07.662Z,22.66
2018-08-13T14:47:36.077Z,22.46
2018-08-13T14:50:05.122Z,22.28
2018-08-13T14:52:33.469Z,22.14
2018-08-13T14:55:02.145Z,22.06
2018-08-13T14:57:30.530Z,21.98
2018-08-13T14:59:58.908Z,21.96
2018-08-13T15:02:27.271Z,21.91
2018-08-13T15:04:55.664Z,21.85
2018-08-13T15:07:24.237Z,21.75
2018-08-13T15:09:52.551Z,21.66
2018-08-13T15:12:20.924Z,21.57
2018-08-13T15:14:49.325Z,21.52
2018-08-13T15:17:17.716Z,21.39
2018-08-13T15:19:46.067Z,21.24
2018-08-13T15:22:14.481Z,21.08
2018-08-13T15:24:42.854Z,20.88
2018-08-13T15:27:11.297Z,20.76
2018-08-13T15:29:39.589Z,20.62
2018-08-13T15:32:56.204Z,20.53
2018-08-13T15:35:24.605Z,20.49
2018-08-13T15:37:52.988Z,20.53
2018-08-13T15:40:21.138Z,20.47
2018-08-13T15:42:49.834Z,20.52
2018-08-13T15:45:20.011Z,20.62
2018-08-13T15:47:49.051Z,20.73
2018-08-13T15:50:18.575Z,20.92
2018-08-13T15:52:47.536Z,21.05
2018-08-13T15:55:15.952Z,21.11
2018-08-13T15:57:44.924Z,21.11
2018-08-13T16:00:18.602Z,21.10
2018-08-13T16:02:47.303Z,21.13
2018-08-13T16:05:15.645Z,21.16
2018-08-13T16:07:44.131Z,21.21
2018-08-13T16:10:13.990Z,21.33
2018-08-13T16:12:43.017Z,21.38
2018-08-13T16:15:11.362Z,21.35
2018-08-13T16:17:40.168Z,21.19
2018-08-13T16:20:15.929Z,21.03
2018-08-13T16:22:45.111Z,20.92
2018-08-13T16:25:13.561Z,20.77
2018-08-13T16:27:42.236Z,20.66
2018-08-13T16:30:16.262Z,20.63
2018-08-13T16:32:45.232Z,20.64
2018-08-13T16:35:13.653Z,20.63
2018-08-13T16:37:42.055Z,20.63
2018-08-13T16:40:10.487Z,20.59
2018-08-13T16:42:39.174Z,20.62
2018-08-13T16:45:08.254Z,20.63
2018-08-13T16:47:36.963Z,20.65
2018-08-13T16:50:11.633Z,20.71
2018-08-13T16:52:39.988Z,20.75
2018-08-13T16:55:08.764Z,20.77
2018-08-13T16:57:37.146Z,20.75
2018-08-13T17:00:07.848Z,20.66
2018-08-13T17:02:36.310Z,20.60
2018-08-13T17:05:05.508Z,20.55
2018-08-13T17:07:33.889Z,20.52
2018-08-13T17:10:02.275Z,20.51
2018-08-13T17:12:30.646Z,20.50
2018-08-13T17:14:58.998Z,20.48
2018-08-13T17:17:27.422Z,20.48
2018-08-13T17:19:55.753Z,20.43
2018-08-13T17:22:24.114Z,20.44
2018-08-13T17:24:53.623Z,20.49
2018-08-13T17:27:21.993Z,20.52
2018-08-13T17:29:50.403Z,20.59
2018-08-13T17:32:18.780Z,20.66
2018-08-13T17:34:47.160Z,20.73
2018-08-13T17:37:15.497Z,20.74
2018-08-13T17:39:43.899Z,20.74
2018-08-13T17:42:12.260Z,20.65
2018-08-13T17:44:40.637Z,20.62
2018-08-13T17:47:09.103Z,20.55
2018-08-13T17:49:37.481Z,20.52
2018-08-13T17:52:05.839Z,20.51
2018-08-13T17:54:34.247Z,20.43
2018-08-13T17:57:02.818Z,20.35
2018-08-13T17:59:31.200Z,20.29
2018-08-13T18:01:59.552Z,20.25
2018-08-13T18:04:27.942Z,20.19
2018-08-13T18:06:56.258Z,20.13
2018-08-13T18:09:24.630Z,20.10
2018-08-13T18:11:52.958Z,20.07
2018-08-13T18:14:21.406Z,20.05
2018-08-13T18:16:49.752Z,20.00
2018-08-13T18:19:18.244Z,19.98
2018-08-13T18:21:46.630Z,19.96
2018-08-13T18:24:15.059Z,19.96
2018-08-13T18:26:43.381Z,19.93
2018-08-13T18:29:11.815Z,19.89
2018-08-13T18:31:40.136Z,19.88
2018-08-13T18:34:08.743Z,19.86
2018-08-13T18:36:37.065Z,19.87
2018-08-13T18:39:07.403Z,19.85
2018-08-13T18:41:35.787Z,19.79
2018-08-13T18:44:04.608Z,19.76
2018-08-13T18:46:33.059Z,19.72
2018-08-13T18:49:01.456Z,19.72
2018-08-13T18:51:29.872Z,19.72
2018-08-13T18:53:58.221Z,19.74
2018-08-13T18:56:26.537Z,19.76
2018-08-13T18:58:54.878Z,19.78
2018-08-13T19:01:23.295Z,19.77
2018-08-13T19:03:51.904Z,19.74
2018-08-13T19:06:20.257Z,19.75
2018-08-13T19:08:48.659Z,19.75
2018-08-13T19:11:17.053Z,19.74
2018-08-13T19:13:45.459Z,19.72
2018-08-13T19:16:13.942Z,19.72
2018-08-13T19:18:42.320Z,19.70
2018-08-13T19:21:10.777Z,19.56
2018-08-13T19:23:39.235Z,19.41
2018-08-13T19:26:07.890Z,19.29
2018-08-13T19:28:36.358Z,19.21
2018-08-13T19:31:04.724Z,19.15
2018-08-13T19:33:33.129Z,19.09
2018-08-13T19:36:01.504Z,19.04
2018-08-13T19:38:29.915Z,19.00
2018-08-13T19:40:58.267Z,18.96
2018-08-13T19:43:26.641Z,18.92
2018-08-13T19:45:55.063Z,18.90
2018-08-13T19:48:23.380Z,18.89
2018-08-13T19:50:51.748Z,18.87
2018-08-13T19:53:20.165Z,18.85
2018-08-13T19:55:48.610Z,18.81
2018-08-13T19:58:16.963Z,18.76
2018-08-13T20:00:45.332Z,18.75
2018-08-13T20:03:14.313Z,18.71
2018-08-13T20:05:42.845Z,18.67
2018-08-13T20:08:11.371Z,18.61
2018-08-13T20:10:39.732Z,18.58
2018-08-13T20:13:08.077Z,18.54
2018-08-13T20:15:36.457Z,18.52
2018-08-13T20:18:05.404Z,18.48
2018-08-13T20:20:33.798Z,18.47
2018-08-13T20:23:02.141Z,18.46
2018-08-13T20:25:30.525Z,18.44
2018-08-13T20:27:58.911Z,18.39
2018-08-13T20:30:27.595Z,18.35
2018-08-13T20:32:55.942Z,18.32
2018-08-13T20:35:24.375Z,18.30
2018-08-13T20:37:52.755Z,18.27
2018-08-13T20:40:21.783Z,18.23
2018-08-13T20:42:50.495Z,18.21
2018-08-13T20:45:20.387Z,18.20
2018-08-13T20:47:49.160Z,18.19
2018-08-13T20:50:19.757Z,18.18
2018-08-13T20:52:49.096Z,18.17
2018-08-13T20:55:19.245Z,18.14
2018-08-13T20:57:48.628Z,18.14
2018-08-13T21:00:18.414Z,18.14
2018-08-13T21:02:47.537Z,18.13
2018-08-13T21:05:16.397Z,18.15
2018-08-13T21:07:45.823Z,18.15
2018-08-13T21:10:15.913Z,18.17
2018-08-13T21:12:44.335Z,18.18
2018-08-13T21:15:14.105Z,18.21
2018-08-13T21:17:42.596Z,18.21
2018-08-13T21:20:12.536Z,18.21
2018-08-13T21:22:40.992Z,18.19
2018-08-13T21:25:12.329Z,18.14
2018-08-13T21:27:41.328Z,18.10
2018-08-13T21:30:09.743Z,18.09
2018-08-13T21:32:38.128Z,18.07
2018-08-13T21:35:06.601Z,18.03
2018-08-13T21:37:35.351Z,18.01
2018-08-13T21:40:03.792Z,17.98
2018-08-13T21:42:32.159Z,18.02
2018-08-13T21:45:00.496Z,18.03
2018-08-13T21:47:28.884Z,18.07
2018-08-13T21:49:57.348Z,18.09
2018-08-13T21:52:25.785Z,18.10
2018-08-13T21:54:54.243Z,18.12
2018-08-13T21:58:06.742Z,18.12
2018-08-13T22:00:40.569Z,18.15
2018-08-13T22:03:10.066Z,18.17
2018-08-13T22:05:38.397Z,18.19
2018-08-13T22:08:07.021Z,18.23
2018-08-13T22:10:35.372Z,18.22
2018-08-13T22:13:03.873Z,18.22
2018-08-13T22:15:33.244Z,18.24
2018-08-13T22:18:03.960Z,18.22
2018-08-13T22:20:33.774Z,18.20
2018-08-13T22:23:02.818Z,18.18
2018-08-13T22:25:41.897Z,18.14
2018-08-13T22:28:11.284Z,18.11
2018-08-13T22:30:39.752Z,18.07
2018-08-13T22:33:08.856Z,18.04
2018-08-13T22:35:37.305Z,18.00
2018-08-13T22:38:06.289Z,18.01
2018-08-13T22:40:34.680Z,17.96
2018-08-13T22:43:03.065Z,17.94
2018-08-13T22:45:31.379Z,17.92
2018-08-13T22:47:59.884Z,17.91
2018-08-13T22:50:28.267Z,17.87
2018-08-13T22:52:56.667Z,17.82
2018-08-13T22:55:25.030Z,17.80
2018-08-13T22:57:53.414Z,17.80
2018-08-13T23:00:22.008Z,17.80
2018-08-13T23:02:51.160Z,17.80
2018-08-13T23:05:21.947Z,17.80
2018-08-13T23:07:50.415Z,17.79
2018-08-13T23:10:20.654Z,17.77
2018-08-13T23:12:50.402Z,17.75
2018-08-13T23:15:18.983Z,17.73
2018-08-13T23:17:47.489Z,17.70
2018-08-13T23:20:21.203Z,17.69
2018-08-13T23:22:52.383Z,17.66
2018-08-13T23:25:20.907Z,17.64
2018-08-13T23:27:50.513Z,17.64
2018-08-13T23:30:19.024Z,17.66
2018-08-13T23:32:49.446Z,17.66
2018-08-13T23:35:18.808Z,17.68
2018-08-13T23:37:47.229Z,17.67
2018-08-13T23:40:15.552Z,17.70
2018-08-13T23:42:43.900Z,17.69
2018-08-13T23:45:14.687Z,17.69
2018-08-13T23:47:43.149Z,17.72
2018-08-13T23:50:14.236Z,17.74
2018-08-13T23:52:42.697Z,17.74
2018-08-13T23:55:45.560Z,17.74
2018-08-13T23:58:14.425Z,17.72
